Wells Bridge, New York
Current Conditions -  °F | °C
As of 2:53 PM on Thursday 29 Jan 2015 (Local Time) from KBGM Reporting Station
Overcast Overcast  
Wind Chill: 19°   Ceiling: 6500
Heat Index: 30°   Visibility: 10mi
Dew Point:   Wind: 16mph
Humidity: 30%   Direction: 150°SSE
Pressure: 29.89"   Gusts: NA
Location:  42.36°N, 75.24°W
Report Text: KBGM 291953Z 15014KT 10SM OVC065 M01/M17 A2989 RMK AO2 SLP149 T10111167
Loading
Personal Weather Stations






























Interactive Weather Map New forecast layout! Learn more

10-Day Weather Forecast

Advertisements
Track Severe Weather on mobile